Flight Track Log - Related Links

Times and Time Zones

All times are in EDT time to prevent confusion due to time zone crossing. See the JAL110 flight status page for this flight to view local times or setup timezone preferences in your user account.

Time Position Orientation Groundspeed Altitude Reporting Facility
EDT Latitude Longitude Course Direction KTS MPH feet Rate Location/Type
Sun 08:45:00 PM 34.8468 135.7529 77° East  Level Estimated
Sun 08:46:00 PM 34.8671 135.8579 77° East  Level Estimated
Sun 08:47:00 PM 34.8872 135.9630 77° East  Level Estimated
Sun 08:48:00 PM 34.9073 136.0681 77° East  Level Estimated
Sun 08:49:00 PM 34.9273 136.1732 77° East  Level Estimated
Sun 08:50:00 PM 34.9472 136.2784 77° East  Level Estimated
Sun 08:51:00 PM 34.9675 136.3863 77° East  Level Estimated
Sun 08:52:00 PM 34.9877 136.4942 77° East  Level Estimated
Sun 08:53:00 PM 35.0078 136.6022 77° East  Level Estimated
Sun 08:54:00 PM 35.0278 136.7103 77° East  Level Estimated
Sun 08:55:00 PM 35.0477 136.8184 77° East  Level Estimated
Sun 08:56:00 PM 35.0675 136.9265 77° East  Level Estimated
Sun 08:57:00 PM 35.0872 137.0348 77° East  Level Estimated
Sun 08:58:00 PM 35.1068 137.1430 77° East  Level Estimated
Sun 08:59:00 PM 35.1264 137.2513 78° East  Level Estimated
Sun 09:00:00 PM 35.1458 137.3597 78° East  Level Estimated
Sun 09:01:00 PM 35.1651 137.4681 78° East  Level Estimated
Sun 09:02:00 PM 35.1843 137.5766 78° East  Level Estimated
Sun 09:03:00 PM 35.2035 137.6851 78° East  Level Estimated
Sun 09:04:00 PM 35.2225 137.7937 78° East  Level Estimated
Sun 09:05:00 PM 35.2415 137.9023 78° East  Level Estimated
Sun 09:06:00 PM 35.2603 138.0110 78° East  Level Estimated
Sun 09:07:00 PM 35.2791 138.1197 78° East  Level Estimated
Sun 09:08:00 PM 35.2977 138.2284 78° East  Level Estimated
Sun 09:09:00 PM 35.3163 138.3373 78° East  Level Estimated
Sun 09:10:00 PM 35.3347 138.4461 78° East  Level Estimated
Sun 09:11:00 PM 35.3531 138.5551 78° East  Level Estimated
Sun 09:12:00 PM 35.3714 138.6640 78° East  Level Estimated
Sun 09:13:00 PM 35.3895 138.7730 78° East  Level Estimated
Sun 09:14:00 PM 35.4076 138.8821 78° East  Level Estimated
Sun 09:15:00 PM 35.4256 138.9912 79° East  Level Estimated
Sun 09:16:00 PM 35.4434 139.1004 79° East  Level Estimated
Sun 09:17:00 PM 35.4612 139.2096 79° East  Level Estimated
Sun 09:18:00 PM 35.4789 139.3189 79° East  Level Estimated
Sun 09:19:00 PM 35.4965 139.4282 79° East  Level Estimated
Sun 09:20:00 PM 35.5139 139.5375 79° East  Level Estimated
Sun 09:21:00 PM 35.5313 139.6469 79° East  Level Estimated
Sun 09:22:00 PM 35.5486 139.7564 79° East  Level Estimated
Sun 09:23:00 PM 35.5523 139.7797 79° East  Level Estimated
Sun 09:24:00 PM 35.5523 139.7797 122° Southeast  Level Estimated
Sun 09:25:00 PM 35.5523 139.7797 122° Southeast  Level Estimated
Sun 09:26:00 PM 35.5523 139.7797 122° Southeast  Level Estimated
Sun 09:27:00 PM 35.5523 139.7797 122° Southeast  Level Estimated
Sun 09:28:00 PM 35.5523 139.7797 122° Southeast  Level Estimated
Sun 09:29:00 PM 35.5523 139.7797 122° Southeast  Level Estimated
Sun 09:30:00 PM 35.5523 139.7797 122° Southeast  Level Estimated
Sun 09:31:00 PM 35.5523 139.7797 122° Southeast  Level Estimated

Login

Don't have an account? Register now (free) for customized features, flight alerts, and more!